Aviation Digital Data Service (ADDS)

Output produced by METARs form (2038 UTC 21 September 2021)
found at http://aviationweather.gov/metar/data/
 
Forecast for: EPDA (DARTOWEK NAVAL , PL)
Text: TAF EPDA 212000Z 2121/2206 VRB03KT 8000 RA BKN020
Forecast period: 2100 UTC 21 September 2021 to 0600 UTC 22 September 2021
Forecast type: FROM: standard forecast or significant change
Winds: variable direction winds at 3 MPH (3 knots; 1.5 m/s)
Visibility: 5 miles (8 km)
Ceiling: 2000 feet AGL
Clouds: broken clouds at 2000 feet AGL
Weather: RA  (moderate rain)
Text: TEMPO 2121/2206 3000 RADZ BR BKN004 BKN010
Forecast period: 2100 UTC 21 September 2021 to 0600 UTC 22 September 2021
Forecast type: TEMPORARY: The following changes expected for less than half the time period
Visibility: 1.86 miles (2.99 km)
Ceiling: 400 feet AGL
Clouds: broken clouds at 400 feet AGL
broken clouds at 1000 feet AGL
Weather: RA DZ BR  (moderate rain, moderate drizzle, mist)